Time;durP1;ratioP1;P1;durP2;ratioP2;P2;SDS_P1;SDS_P2;PMS_P1;PMS_P2;Temp;Humidity;BMP_temperature;BMP_pressure;BME280_temperature;BME280_humidity;BME280_pressure;Samples;Min_cycle;Max_cycle;Signal;HPM_P1;HPM_P2
2022/10/06 00:00:43;;;;;;;1.90;1.17;;;14.90;99.90;;;;;;5028678;28;20421;-38
2022/10/06 00:03:09;;;;;;;1.23;0.67;;;14.90;99.90;;;;;;5026937;28;20851;-37
2022/10/06 00:05:35;;;;;;;2.20;0.80;;;14.90;99.90;;;;;;5029480;28;20455;-38
2022/10/06 00:08:02;;;;;;;2.03;0.73;;;14.80;99.90;;;;;;5030004;28;20296;-37
2022/10/06 00:10:28;;;;;;;1.60;0.80;;;14.80;99.90;;;;;;5026248;28;20454;-38
2022/10/06 00:12:53;;;;;;;2.60;0.70;;;14.80;99.90;;;;;;5028517;28;20191;-37
2022/10/06 00:15:26;;;;;;;1.47;0.83;;;14.60;99.90;;;;;;5029768;28;20958;-38
2022/10/06 00:17:51;;;;;;;1.17;0.70;;;14.60;99.90;;;;;;5029877;28;20790;-38
2022/10/06 00:20:18;;;;;;;1.67;0.80;;;14.70;99.90;;;;;;5034971;28;20416;-37
2022/10/06 00:22:47;;;;;;;2.07;0.90;;;14.60;99.90;;;;;;5028999;28;20190;-37
2022/10/06 00:25:16;;;;;;;2.90;0.90;;;14.60;99.90;;;;;;5029896;28;21094;-37
2022/10/06 00:27:47;;;;;;;1.97;1.03;;;14.60;99.90;;;;;;5029785;28;21172;-37
2022/10/06 00:30:16;;;;;;;1.47;0.83;;;14.60;99.90;;;;;;5029758;28;20421;-38
2022/10/06 00:32:51;;;;;;;2.90;1.10;;;14.50;99.90;;;;;;5029014;28;20433;-37
2022/10/06 00:35:17;;;;;;;3.20;1.20;;;14.50;99.90;;;;;;5029739;28;20421;-37
2022/10/06 00:37:43;;;;;;;1.50;0.80;;;14.50;99.90;;;;;;5028388;28;20542;-37
2022/10/06 00:40:09;;;;;;;1.93;0.80;;;14.50;99.90;;;;;;5029464;28;20799;-38
2022/10/06 00:42:50;;;;;;;2.00;1.17;;;14.50;99.90;;;;;;5029549;28;20191;-37
2022/10/06 00:45:19;;;;;;;2.50;0.70;;;14.50;99.90;;;;;;5029254;28;20504;-37
2022/10/06 00:47:45;;;;;;;2.20;0.77;;;14.50;99.90;;;;;;5029573;28;20417;-37
2022/10/06 00:50:13;;;;;;;2.93;2.30;;;14.50;99.90;;;;;;5029484;28;20844;-37
2022/10/06 00:52:39;;;;;;;4.20;1.27;;;14.60;99.90;;;;;;5029012;28;20221;-38
2022/10/06 00:55:08;;;;;;;4.43;1.10;;;14.60;99.90;;;;;;5025021;28;20432;-37
2022/10/06 00:57:37;;;;;;;2.90;0.93;;;14.60;99.90;;;;;;5029256;28;20475;-37
2022/10/06 01:00:07;;;;;;;1.30;0.80;;;14.40;99.90;;;;;;5029180;28;20421;-37
2022/10/06 01:02:39;;;;;;;2.10;0.80;;;14.20;99.90;;;;;;5029077;28;20421;-37
2022/10/06 01:05:07;;;;;;;3.90;0.67;;;14.30;99.90;;;;;;5029076;28;20441;-37
2022/10/06 01:07:32;;;;;;;2.80;0.90;;;14.30;99.90;;;;;;5027989;28;21009;-37
2022/10/06 01:09:58;;;;;;;4.23;1.07;;;14.30;99.90;;;;;;5010459;28;20421;-37
2022/10/06 01:12:28;;;;;;;5.47;1.30;;;14.20;99.90;;;;;;5028849;28;20198;-37
2022/10/06 01:14:55;;;;;;;3.57;0.97;;;14.10;99.90;;;;;;5028894;28;20266;-37
2022/10/06 01:17:23;;;;;;;3.03;0.90;;;14.00;99.90;;;;;;5032770;28;20527;-37
2022/10/06 01:20:07;;;;;;;3.03;1.27;;;14.00;99.90;;;;;;5036329;28;20416;-37
2022/10/06 01:22:40;;;;;;;2.53;1.27;;;14.10;99.90;;;;;;5020156;28;20425;-37
2022/10/06 01:25:07;;;;;;;2.40;0.90;;;14.20;99.90;;;;;;5032778;28;20899;-37
2022/10/06 01:27:36;;;;;;;2.97;0.90;;;14.20;99.90;;;;;;5031441;28;20986;-37
2022/10/06 01:30:04;;;;;;;4.20;1.70;;;14.20;99.90;;;;;;5032582;28;21096;-37
2022/10/06 01:32:36;;;;;;;5.77;1.30;;;14.20;99.90;;;;;;5032587;28;20421;-37
2022/10/06 01:35:03;;;;;;;3.53;1.13;;;14.20;99.90;;;;;;5032193;28;20758;-37
2022/10/06 01:37:29;;;;;;;3.33;1.20;;;14.10;99.90;;;;;;5032178;28;20971;-37
2022/10/06 01:39:54;;;;;;;2.20;1.00;;;14.10;99.90;;;;;;5032359;28;20437;-37
2022/10/06 01:42:20;;;;;;;3.17;1.40;;;14.10;99.90;;;;;;5032235;28;20214;-37
2022/10/06 01:44:45;;;;;;;3.87;1.27;;;14.10;99.90;;;;;;5031965;28;20668;-37
2022/10/06 01:47:11;;;;;;;2.30;1.07;;;14.00;99.90;;;;;;5032252;28;20214;-37
2022/10/06 01:49:37;;;;;;;3.20;1.23;;;14.00;99.90;;;;;;5032300;28;20194;-37
2022/10/06 01:52:03;;;;;;;4.80;1.43;;;13.90;99.90;;;;;;5031958;28;20214;-37
2022/10/06 01:54:29;;;;;;;4.90;1.63;;;13.90;99.90;;;;;;5030328;28;20237;-38
2022/10/06 01:56:55;;;;;;;6.67;1.70;;;13.90;99.90;;;;;;5031962;28;20457;-37
2022/10/06 01:59:21;;;;;;;3.07;1.47;;;14.00;99.90;;;;;;5032143;28;20429;-37
2022/10/06 02:01:46;;;;;;;7.17;1.60;;;14.00;99.90;;;;;;5032037;28;20617;-37
2022/10/06 02:04:12;;;;;;;6.50;1.37;;;14.00;99.90;;;;;;5031495;28;20270;-37
2022/10/06 02:06:38;;;;;;;4.27;1.50;;;13.90;99.90;;;;;;5031701;28;20191;-37
2022/10/06 02:09:03;;;;;;;3.80;1.20;;;13.80;99.90;;;;;;5031835;28;20475;-37
2022/10/06 02:11:29;;;;;;;6.10;1.70;;;13.80;99.90;;;;;;5031799;28;20716;-37
2022/10/06 02:13:55;;;;;;;3.10;1.10;;;13.70;99.90;;;;;;5031278;28;20194;-37
2022/10/06 02:16:20;;;;;;;6.20;1.77;;;13.70;99.90;;;;;;5031849;28;20241;-37
2022/10/06 02:18:47;;;;;;;4.33;1.37;;;13.80;99.90;;;;;;5031736;28;20194;-37
2022/10/06 02:21:18;;;;;;;5.83;1.40;;;13.90;99.90;;;;;;5037151;28;20575;-37
2022/10/06 02:23:44;;;;;;;6.67;1.37;;;13.90;99.90;;;;;;5029719;28;20417;-38
2022/10/06 02:26:10;;;;;;;6.23;2.00;;;13.90;99.90;;;;;;5028128;28;20433;-37
2022/10/06 02:28:36;;;;;;;9.13;2.23;;;13.80;99.90;;;;;;5031325;28;20504;-39
2022/10/06 02:31:08;;;;;;;5.20;1.70;;;13.80;99.90;;;;;;5031550;28;20440;-38
2022/10/06 02:33:35;;;;;;;7.27;1.80;;;13.90;99.90;;;;;;5030538;28;20194;-37
2022/10/06 02:36:01;;;;;;;4.90;2.20;;;13.80;99.90;;;;;;5031437;28;20550;-38
2022/10/06 02:38:27;;;;;;;2.73;1.40;;;13.80;99.90;;;;;;5031205;28;20425;-38
2022/10/06 02:40:53;;;;;;;5.00;1.40;;;13.80;99.90;;;;;;5026550;28;20422;-37
2022/10/06 02:43:23;;;;;;;5.33;1.90;;;13.80;99.90;;;;;;5030480;28;20607;-37
2022/10/06 02:45:57;;;;;;;3.17;1.50;;;13.80;99.90;;;;;;5031215;28;20182;-38
2022/10/06 02:48:23;;;;;;;7.47;1.80;;;13.80;99.90;;;;;;5030803;28;20429;-38
2022/10/06 02:50:58;;;;;;;4.20;1.50;;;13.80;99.90;;;;;;5031164;28;20417;-37
2022/10/06 02:53:25;;;;;;;3.97;1.47;;;13.80;99.90;;;;;;5030415;28;20506;-37
2022/10/06 02:56:07;;;;;;;4.10;1.20;;;13.80;99.90;;;;;;5030071;28;20510;-37
2022/10/06 02:58:33;;;;;;;3.47;1.13;;;13.80;99.90;;;;;;5027831;28;20421;-37
2022/10/06 03:01:08;;;;;;;5.70;2.00;;;13.90;99.90;;;;;;5030796;28;20401;-37
2022/10/06 03:03:35;;;;;;;4.03;2.17;;;13.90;99.90;;;;;;5030308;28;20432;-37
2022/10/06 03:06:20;;;;;;;2.43;1.70;;;13.90;99.90;;;;;;5030674;28;20453;-37
2022/10/06 03:09:02;;;;;;;2.93;1.50;;;13.90;99.90;;;;;;5030626;28;20421;-37
2022/10/06 03:11:31;;;;;;;7.70;1.70;;;13.90;99.90;;;;;;5030716;28;20479;-37
2022/10/06 03:13:57;;;;;;;8.33;1.93;;;13.90;99.90;;;;;;5029982;28;20445;-38
2022/10/06 03:16:25;;;;;;;4.67;1.30;;;13.80;99.90;;;;;;5030764;28;20510;-37
2022/10/06 03:18:53;;;;;;;4.30;1.60;;;13.80;99.90;;;;;;5030610;28;20790;-37
2022/10/06 03:21:21;;;;;;;3.27;1.50;;;13.70;99.90;;;;;;5036843;28;20777;-38
2022/10/06 03:23:48;;;;;;;7.40;2.37;;;13.70;99.90;;;;;;5029508;28;20421;-38
2022/10/06 03:26:16;;;;;;;6.67;2.13;;;13.70;99.90;;;;;;5030573;28;20433;-37
2022/10/06 03:28:43;;;;;;;3.83;1.73;;;13.70;99.90;;;;;;5030461;28;20516;-38
2022/10/06 03:31:09;;;;;;;3.40;1.63;;;13.60;99.90;;;;;;5029209;28;20445;-37
2022/10/06 03:33:35;;;;;;;4.40;1.80;;;13.60;99.90;;;;;;5029831;28;20525;-38
2022/10/06 03:36:03;;;;;;;4.00;1.77;;;13.70;99.90;;;;;;5030078;28;20967;-38
2022/10/06 03:38:33;;;;;;;8.23;2.03;;;13.60;99.90;;;;;;5028688;28;20540;-38
2022/10/06 03:41:25;;;;;;;4.07;1.57;;;13.60;99.90;;;;;;5029974;28;20417;-38
2022/10/06 03:43:53;;;;;;;3.87;1.57;;;13.60;99.90;;;;;;5026990;28;20420;-37
2022/10/06 03:46:21;;;;;;;3.90;1.40;;;13.60;99.90;;;;;;5045166;28;20424;-37
2022/10/06 03:48:48;;;;;;;7.87;1.53;;;13.60;99.90;;;;;;5048815;28;20466;-38
2022/10/06 03:51:23;;;;;;;5.20;1.60;;;13.50;99.90;;;;;;5049929;28;20431;-37
2022/10/06 03:53:50;;;;;;;3.53;1.53;;;13.50;99.90;;;;;;5049383;28;20417;-37
2022/10/06 03:56:20;;;;;;;7.50;1.90;;;13.30;99.90;;;;;;5035053;28;21082;-37
2022/10/06 03:58:50;;;;;;;7.83;2.50;;;13.20;99.90;;;;;;5030404;28;20443;-37
2022/10/06 04:01:24;;;;;;;8.13;1.53;;;13.20;99.90;;;;;;5029738;28;20417;-37
2022/10/06 04:03:50;;;;;;;6.20;1.57;;;13.20;99.90;;;;;;5029438;28;20757;-38
2022/10/06 04:06:18;;;;;;;3.50;1.23;;;13.20;99.90;;;;;;5029745;28;20452;-37
2022/10/06 04:08:45;;;;;;;6.67;1.50;;;13.20;99.90;;;;;;5029960;28;20532;-38
2022/10/06 04:11:14;;;;;;;10.53;1.77;;;13.20;99.90;;;;;;5016664;28;20421;-37
2022/10/06 04:13:41;;;;;;;4.10;1.40;;;13.30;99.90;;;;;;5029086;28;20417;-37
2022/10/06 04:16:13;;;;;;;7.23;2.07;;;13.30;99.90;;;;;;5029718;28;20468;-37
2022/10/06 04:18:39;;;;;;;7.13;2.37;;;13.40;99.90;;;;;;5029919;28;20946;-37
2022/10/06 04:21:05;;;;;;;4.87;2.07;;;13.40;99.90;;;;;;5035975;28;20435;-37
2022/10/06 04:23:31;;;;;;;4.07;1.80;;;13.30;99.90;;;;;;5029116;28;21015;-37
2022/10/06 04:26:02;;;;;;;7.10;2.30;;;13.30;99.90;;;;;;5029053;28;20186;-37
2022/10/06 04:28:28;;;;;;;9.10;2.33;;;13.30;99.90;;;;;;5029717;28;20429;-37
2022/10/06 04:30:55;;;;;;;6.83;2.00;;;13.30;99.90;;;;;;5029724;28;20428;-37
2022/10/06 04:33:21;;;;;;;4.07;1.47;;;13.30;99.90;;;;;;5029087;28;20433;-37
2022/10/06 04:35:54;;;;;;;6.80;1.43;;;13.30;99.90;;;;;;5029727;28;20467;-37
2022/10/06 04:38:20;;;;;;;7.13;2.30;;;13.20;99.90;;;;;;5029663;28;20209;-37
2022/10/06 04:40:46;;;;;;;7.70;2.17;;;13.20;99.90;;;;;;5028636;28;20475;-37
2022/10/06 04:43:12;;;;;;;3.53;1.30;;;13.20;99.90;;;;;;5028867;28;20190;-39
2022/10/06 04:45:38;;;;;;;6.80;1.90;;;13.10;99.90;;;;;;5039126;28;20536;-37
2022/10/06 04:48:03;;;;;;;5.17;1.80;;;13.00;99.90;;;;;;5049341;28;20417;-37
2022/10/06 04:50:29;;;;;;;5.67;2.00;;;13.00;99.90;;;;;;5044395;28;20194;-37
2022/10/06 04:52:55;;;;;;;5.17;2.07;;;12.90;99.90;;;;;;5026228;28;20796;-38
2022/10/06 04:55:21;;;;;;;5.70;1.73;;;12.80;99.90;;;;;;5026809;28;20241;-37
2022/10/06 04:57:47;;;;;;;7.20;1.90;;;12.90;99.90;;;;;;5033037;28;20696;-37
2022/10/06 05:00:21;;;;;;;5.47;1.90;;;12.90;99.90;;;;;;5033342;28;20650;-38
2022/10/06 05:02:47;;;;;;;3.50;1.70;;;12.90;99.90;;;;;;5031466;28;20200;-38
2022/10/06 05:05:13;;;;;;;4.67;2.10;;;12.90;99.90;;;;;;5027466;28;20437;-37
2022/10/06 05:07:39;;;;;;;6.83;2.47;;;12.90;99.90;;;;;;5032733;28;20718;-37
2022/10/06 05:10:04;;;;;;;8.97;2.27;;;12.90;99.90;;;;;;5032119;28;20209;-38
2022/10/06 05:12:30;;;;;;;7.90;1.80;;;12.90;99.90;;;;;;5032714;28;20183;-37
2022/10/06 05:14:56;;;;;;;4.53;1.77;;;12.90;99.90;;;;;;5032553;28;20436;-37
2022/10/06 05:17:22;;;;;;;9.90;3.50;;;12.80;99.90;;;;;;5032727;28;20214;-37
2022/10/06 05:19:48;;;;;;;5.27;1.90;;;12.80;99.90;;;;;;5036422;28;20853;-37
2022/10/06 05:22:14;;;;;;;4.63;2.00;;;12.80;99.90;;;;;;5035251;28;20429;-37
2022/10/06 05:24:40;;;;;;;4.00;1.60;;;12.80;99.90;;;;;;5031996;28;20861;-37
2022/10/06 05:27:05;;;;;;;4.47;1.77;;;12.80;99.90;;;;;;5031508;28;20433;-37
2022/10/06 05:29:33;;;;;;;7.70;2.23;;;12.90;99.90;;;;;;5032788;28;20182;-37
2022/10/06 05:31:58;;;;;;;6.20;2.10;;;12.80;99.90;;;;;;5032722;28;20186;-37
2022/10/06 05:34:24;;;;;;;6.93;2.27;;;12.80;99.90;;;;;;5042063;28;20493;-37
2022/10/06 05:36:50;;;;;;;4.20;1.50;;;12.70;99.90;;;;;;5052313;28;20241;-37
2022/10/06 05:39:15;;;;;;;7.17;1.90;;;12.70;99.90;;;;;;5052331;28;20178;-37
2022/10/06 05:41:41;;;;;;;7.97;2.50;;;12.70;99.90;;;;;;5052417;28;20186;-37
2022/10/06 05:44:07;;;;;;;8.40;2.27;;;12.60;99.90;;;;;;5051709;28;20225;-37
2022/10/06 05:46:34;;;;;;;11.87;2.67;;;12.50;99.90;;;;;;5052380;28;20597;-37
2022/10/06 05:49:09;;;;;;;5.13;2.00;;;12.50;99.90;;;;;;5044659;28;20519;-37
2022/10/06 05:51:36;;;;;;;7.50;1.80;;;12.60;99.90;;;;;;5032370;28;20429;-38
2022/10/06 05:54:02;;;;;;;5.60;1.70;;;12.60;99.90;;;;;;5028014;28;20447;-36
2022/10/06 05:56:30;;;;;;;4.50;1.47;;;12.60;99.90;;;;;;5031936;28;20448;-38
2022/10/06 05:58:57;;;;;;;6.97;1.90;;;12.70;99.90;;;;;;5032058;28;20467;-36
2022/10/06 06:01:24;;;;;;;9.17;2.50;;;12.70;99.90;;;;;;5031597;28;20424;-37
2022/10/06 06:04:01;;;;;;;4.33;1.90;;;12.60;99.90;;;;;;5031528;28;20441;-37
2022/10/06 06:06:39;;;;;;;8.73;2.07;;;12.60;99.90;;;;;;5031968;28;20544;-36
2022/10/06 06:09:10;;;;;;;6.13;1.80;;;12.50;99.90;;;;;;5029792;28;21042;-37
2022/10/06 06:11:39;;;;;;;5.70;1.50;;;12.50;99.90;;;;;;5025357;28;20456;-37
2022/10/06 06:14:17;;;;;;;8.50;2.07;;;12.50;99.90;;;;;;5029336;28;20440;-37
2022/10/06 06:16:44;;;;;;;5.23;2.00;;;12.50;99.90;;;;;;5027244;28;20457;-37
2022/10/06 06:19:11;;;;;;;5.60;1.90;;;12.60;99.90;;;;;;5031809;28;20467;-37
2022/10/06 06:21:37;;;;;;;6.77;2.00;;;12.60;99.90;;;;;;5036754;28;20453;-37
2022/10/06 06:24:04;;;;;;;7.33;2.10;;;12.60;99.90;;;;;;5029810;28;20475;-37
2022/10/06 06:26:35;;;;;;;9.07;2.63;;;12.50;99.90;;;;;;5030784;28;20417;-37
2022/10/06 06:29:02;;;;;;;9.60;3.97;;;12.50;99.90;;;;;;5031469;28;20425;-37
2022/10/06 06:31:31;;;;;;;5.00;1.80;;;12.60;99.90;;;;;;5031517;28;20444;-37
2022/10/06 06:33:58;;;;;;;7.00;2.17;;;12.60;99.90;;;;;;5030944;28;20426;-37
2022/10/06 06:36:28;;;;;;;8.60;1.90;;;12.60;99.90;;;;;;5030991;28;20457;-37
2022/10/06 06:38:56;;;;;;;6.83;2.00;;;12.60;99.90;;;;;;5031184;28;20451;-37
2022/10/06 06:41:30;;;;;;;4.07;1.90;;;12.60;99.90;;;;;;5031330;28;20426;-37
2022/10/06 06:43:58;;;;;;;7.60;2.00;;;12.70;99.90;;;;;;5031545;28;20520;-37
2022/10/06 06:46:26;;;;;;;6.73;2.00;;;12.60;99.90;;;;;;5032520;28;20471;-38
2022/10/06 06:48:53;;;;;;;5.27;2.27;;;12.60;99.90;;;;;;5030913;28;20421;-37
2022/10/06 06:51:22;;;;;;;9.03;1.80;;;12.60;99.90;;;;;;5031212;28;20500;-38
2022/10/06 06:53:51;;;;;;;8.90;2.37;;;12.50;99.90;;;;;;5030462;28;20435;-37
2022/10/06 06:56:18;;;;;;;6.57;2.10;;;12.60;99.90;;;;;;5030074;28;20461;-37
2022/10/06 06:58:46;;;;;;;7.37;2.30;;;12.60;99.90;;;;;;5046398;28;20444;-37
2022/10/06 07:01:14;;;;;;;12.53;1.90;;;12.70;99.90;;;;;;5031017;28;20436;-37
2022/10/06 07:03:41;;;;;;;7.27;2.00;;;12.70;99.90;;;;;;5030240;28;20429;-37
2022/10/06 07:06:09;;;;;;;11.40;2.67;;;12.70;99.90;;;;;;5030642;28;20444;-37
2022/10/06 07:08:43;;;;;;;6.70;2.10;;;12.90;99.90;;;;;;5030165;28;20425;-37
2022/10/06 07:11:17;;;;;;;7.40;2.43;;;12.90;99.90;;;;;;5030536;28;20840;-37
2022/10/06 07:13:44;;;;;;;6.40;2.07;;;12.90;99.90;;;;;;5030223;28;20413;-37
2022/10/06 07:27:22;;;;;;;6.33;2.00;;;13.60;99.90;;;;;;5029940;28;20436;-37
2022/10/06 07:29:53;;;;;;;7.67;2.63;;;13.90;99.90;;;;;;5030601;28;20432;-38
2022/10/06 07:32:22;;;;;;;8.33;2.20;;;14.20;99.90;;;;;;5030411;28;20455;-38
2022/10/06 07:34:49;;;;;;;9.77;2.00;;;14.40;99.90;;;;;;5028490;28;20749;-37
2022/10/06 07:37:16;;;;;;;10.40;2.57;;;14.60;99.90;;;;;;5030035;28;20969;-37
2022/10/06 07:39:43;;;;;;;9.10;2.23;;;14.70;99.90;;;;;;5042941;28;20460;-38
2022/10/06 07:42:14;;;;;;;9.53;3.00;;;14.90;99.90;;;;;;5049508;28;20952;-37
2022/10/06 07:44:43;;;;;;;7.37;2.20;;;15.10;99.90;;;;;;5048066;28;20442;-37
2022/10/06 07:47:09;;;;;;;8.70;2.43;;;15.20;99.90;;;;;;5044981;28;20469;-37
2022/10/06 07:49:35;;;;;;;7.00;2.10;;;15.40;99.90;;;;;;5047489;28;20421;-37
2022/10/06 07:52:04;;;;;;;8.17;2.70;;;15.40;99.90;;;;;;5050032;28;20436;-37
2022/10/06 07:54:29;;;;;;;5.37;2.10;;;15.50;99.90;;;;;;5047138;28;20185;-37
2022/10/06 07:56:55;;;;;;;10.90;2.93;;;15.60;99.90;;;;;;5031522;28;20461;-38
2022/10/06 07:59:21;;;;;;;15.37;3.23;;;15.80;99.90;;;;;;5030120;28;20224;-37
2022/10/06 08:01:48;;;;;;;8.10;2.47;;;15.90;99.90;;;;;;5030134;28;20190;-39
2022/10/06 08:04:14;;;;;;;11.37;2.93;;;16.00;99.90;;;;;;5027000;28;20186;-38
2022/10/06 08:06:40;;;;;;;10.83;2.60;;;15.90;99.90;;;;;;5029998;28;20429;-38
2022/10/06 08:09:06;;;;;;;13.50;3.17;;;16.10;99.90;;;;;;5029492;28;20252;-37
2022/10/06 08:11:33;;;;;;;7.50;2.30;;;16.10;99.90;;;;;;5029965;28;20963;-37
2022/10/06 08:13:59;;;;;;;9.40;2.73;;;16.20;99.90;;;;;;5029147;28;20240;-38
2022/10/06 08:16:28;;;;;;;10.43;2.87;;;16.30;99.90;;;;;;5029836;28;20814;-37
2022/10/06 08:18:56;;;;;;;7.47;3.13;;;16.30;99.90;;;;;;5029798;28;20429;-37
2022/10/06 08:21:27;;;;;;;10.73;2.77;;;16.40;99.90;;;;;;5034360;28;20421;-37
2022/10/06 08:23:54;;;;;;;8.20;2.40;;;16.50;99.90;;;;;;5029027;28;20444;-37
2022/10/06 08:26:21;;;;;;;11.30;3.53;;;16.60;99.90;;;;;;5033807;28;20421;-37
2022/10/06 08:28:49;;;;;;;11.90;2.70;;;16.70;99.90;;;;;;5033870;28;21124;-37
2022/10/06 08:31:17;;;;;;;11.00;2.77;;;16.70;99.90;;;;;;5034001;28;20892;-37
2022/10/06 08:33:44;;;;;;;13.90;2.63;;;16.80;99.90;;;;;;5033031;28;20524;-37
2022/10/06 08:36:16;;;;;;;13.47;2.57;;;16.90;99.90;;;;;;5032166;28;20514;-37
2022/10/06 08:38:42;;;;;;;11.03;2.70;;;17.00;99.90;;;;;;5033650;28;20421;-37
2022/10/06 08:41:19;;;;;;;9.67;2.90;;;17.00;99.90;;;;;;5033635;28;20443;-38
2022/10/06 08:44:05;;;;;;;13.20;3.93;;;17.10;99.90;;;;;;5033171;28;20483;-37
2022/10/06 08:46:40;;;;;;;12.73;2.27;;;17.10;99.90;;;;;;5032004;28;20492;-37
2022/10/06 08:49:16;;;;;;;12.50;2.60;;;16.90;99.90;;;;;;5033415;28;20428;-37
2022/10/06 08:52:14;;;;;;;8.13;2.20;;;17.10;99.90;;;;;;5033520;28;20919;-38
2022/10/06 08:54:46;;;;;;;7.60;2.90;;;17.10;99.90;;;;;;5030712;28;20952;-37
2022/10/06 08:57:46;;;;;;;7.73;2.47;;;17.10;99.90;;;;;;5033107;28;20490;-37
2022/10/06 09:00:14;;;;;;;8.43;2.87;;;17.20;99.90;;;;;;5031909;28;20416;-38
2022/10/06 09:02:46;;;;;;;5.10;2.07;;;17.30;99.90;;;;;;5032562;28;20451;-37
2022/10/06 09:05:23;;;;;;;11.10;2.73;;;17.30;99.90;;;;;;5032785;28;20437;-37
2022/10/06 09:08:28;;;;;;;11.17;2.90;;;17.40;99.90;;;;;;5031773;28;20428;-37
2022/10/06 09:11:06;;;;;;;9.23;2.57;;;17.40;99.90;;;;;;5031990;28;20490;-38
2022/10/06 09:13:42;;;;;;;11.00;2.30;;;17.40;99.90;;;;;;5032377;28;20432;-38
2022/10/06 09:16:14;;;;;;;13.73;3.20;;;17.40;99.90;;;;;;5032891;28;20471;-37
2022/10/06 09:18:48;;;;;;;8.27;2.20;;;17.50;99.90;;;;;;5033027;28;20445;-37
2022/10/06 09:21:20;;;;;;;10.97;2.70;;;17.70;99.90;;;;;;5038428;28;20421;-38
2022/10/06 09:23:52;;;;;;;6.07;2.20;;;17.70;99.90;;;;;;5032178;28;20432;-38
2022/10/06 09:26:30;;;;;;;5.00;2.30;;;17.80;99.90;;;;;;5032595;28;20445;-37
2022/10/06 09:28:57;;;;;;;11.47;2.67;;;17.50;99.90;;;;;;5032812;28;20494;-38
2022/10/06 09:31:36;;;;;;;14.93;2.90;;;17.50;99.90;;;;;;5032666;28;20514;-37
2022/10/06 09:34:07;;;;;;;6.00;2.60;;;17.70;99.90;;;;;;5032051;28;20513;-37
2022/10/06 09:37:01;;;;;;;7.37;2.50;;;17.80;99.90;;;;;;5031385;28;20499;-38
2022/10/06 09:39:32;;;;;;;13.73;3.00;;;17.60;99.90;;;;;;5032667;28;20918;-37
2022/10/06 09:42:02;;;;;;;8.13;2.50;;;17.70;99.90;;;;;;5032621;28;20466;-37
2022/10/06 09:44:51;;;;;;;14.40;2.80;;;17.80;99.90;;;;;;5031896;28;20429;-37
2022/10/06 09:47:38;;;;;;;8.27;2.17;;;18.00;99.90;;;;;;5032502;28;20429;-37
2022/10/06 09:50:16;;;;;;;9.43;2.80;;;18.20;99.90;;;;;;5032485;28;20520;-37
2022/10/06 09:52:57;;;;;;;7.33;2.40;;;18.30;99.90;;;;;;5031623;28;20453;-37
2022/10/06 09:55:28;;;;;;;10.53;2.00;;;18.30;99.90;;;;;;5030609;28;20483;-38
2022/10/06 09:57:56;;;;;;;9.70;2.13;;;18.30;99.90;;;;;;5032015;28;20555;-37
2022/10/06 10:00:35;;;;;;;9.57;2.10;;;18.40;99.90;;;;;;5032294;28;20441;-37
2022/10/06 10:03:07;;;;;;;10.57;2.33;;;18.20;99.90;;;;;;5030333;28;20524;-37
2022/10/06 10:05:35;;;;;;;6.50;3.10;;;18.10;99.90;;;;;;5031784;28;20464;-37
2022/10/06 10:08:21;;;;;;;6.73;2.70;;;18.00;99.90;;;;;;5031799;28;20775;-37
2022/10/06 10:13:52;;;;;;;7.30;2.63;;;18.20;99.90;;;;;;5030721;28;20453;-37
2022/10/06 10:16:19;;;;;;;8.33;2.73;;;18.20;99.90;;;;;;5031629;28;21106;-37
2022/10/06 10:18:46;;;;;;;8.80;2.40;;;18.30;99.90;;;;;;5031752;28;20580;-38
2022/10/06 10:21:23;;;;;;;14.83;3.30;;;18.40;99.90;;;;;;5037713;28;20433;-38
2022/10/06 10:23:55;;;;;;;4.93;1.90;;;18.50;99.90;;;;;;5030983;28;20416;-38
2022/10/06 10:26:52;;;;;;;5.97;2.10;;;18.40;99.90;;;;;;5031489;28;20437;-37
2022/10/06 10:29:49;;;;;;;8.83;2.27;;;18.40;99.90;;;;;;5029674;28;20931;-38
2022/10/06 10:32:30;;;;;;;5.17;2.13;;;18.50;99.90;;;;;;5030254;28;20436;-37
2022/10/06 10:35:12;;;;;;;5.00;1.80;;;18.40;99.90;;;;;;5030764;28;20963;-37
2022/10/06 10:37:38;;;;;;;4.33;1.53;;;18.30;99.20;;;;;;5031286;28;20515;-39
2022/10/06 10:40:16;;;;;;;8.20;2.17;;;18.20;99.50;;;;;;5031361;28;20887;-38
2022/10/06 10:42:58;;;;;;;5.23;1.57;;;18.20;99.90;;;;;;5030718;28;20421;-37
2022/10/06 10:45:28;;;;;;;5.40;1.40;;;18.10;99.90;;;;;;5031166;28;20479;-37
2022/10/06 10:47:56;;;;;;;3.83;1.50;;;17.80;98.60;;;;;;5030181;28;20432;-37
2022/10/06 10:50:41;;;;;;;6.73;2.13;;;17.80;99.70;;;;;;5031275;28;20429;-37
2022/10/06 10:53:16;;;;;;;3.57;1.70;;;17.80;99.90;;;;;;5030415;28;20427;-37
2022/10/06 10:55:49;;;;;;;9.67;2.33;;;17.80;99.90;;;;;;5029242;28;20533;-37
2022/10/06 10:58:29;;;;;;;3.33;1.20;;;17.80;99.40;;;;;;5050530;28;20546;-38
2022/10/06 11:01:35;;;;;;;7.87;1.63;;;17.90;98.70;;;;;;5050888;28;20972;-38
2022/10/06 11:04:02;;;;;;;5.43;1.50;;;17.90;98.20;;;;;;5049890;28;20510;-37
2022/10/06 11:06:53;;;;;;;12.30;4.23;;;17.80;98.30;;;;;;5049619;28;20448;-37
2022/10/06 11:09:26;;;;;;;7.10;1.83;;;17.90;98.70;;;;;;5044657;28;20949;-37
2022/10/06 11:12:01;;;;;;;7.87;1.90;;;17.90;98.20;;;;;;5030854;28;20421;-37
2022/10/06 11:14:33;;;;;;;7.17;1.73;;;18.00;98.50;;;;;;5028759;28;20479;-38
2022/10/06 11:17:27;;;;;;;5.77;1.87;;;18.00;98.90;;;;;;5028442;28;20469;-37
2022/10/06 11:20:07;;;;;;;2.90;1.43;;;17.90;98.30;;;;;;5050521;28;20943;-38
2022/10/06 11:22:41;;;;;;;6.67;2.10;;;18.00;98.90;;;;;;5030558;28;20512;-37
2022/10/06 11:25:18;;;;;;;3.30;1.30;;;18.10;98.60;;;;;;5029089;28;20452;-38
2022/10/06 11:27:46;;;;;;;5.53;1.30;;;18.30;98.80;;;;;;5029428;28;20435;-37
2022/10/06 11:30:18;;;;;;;7.40;1.90;;;18.50;99.10;;;;;;5030279;28;20473;-38
2022/10/06 11:33:19;;;;;;;6.03;2.20;;;18.50;97.50;;;;;;5027139;28;20419;-37
2022/10/06 11:35:47;;;;;;;6.60;2.23;;;18.60;97.80;;;;;;5018774;28;20525;-37
2022/10/06 11:38:24;;;;;;;3.20;1.63;;;18.60;97.50;;;;;;5030300;28;20472;-37
2022/10/06 11:41:06;;;;;;;5.53;1.50;;;18.60;98.00;;;;;;5030317;28;20482;-37
2022/10/06 11:44:03;;;;;;;8.30;2.37;;;18.70;98.50;;;;;;5029651;28;20513;-38
2022/10/06 11:46:37;;;;;;;8.63;1.30;;;18.80;97.40;;;;;;5030106;28;20436;-37
2022/10/06 11:49:27;;;;;;;6.70;1.80;;;18.90;97.80;;;;;;5030447;28;20449;-38
2022/10/06 11:52:05;;;;;;;3.47;1.50;;;19.00;97.40;;;;;;5029710;28;20452;-38
2022/10/06 11:54:46;;;;;;;6.20;2.30;;;19.10;97.90;;;;;;5043975;28;20432;-37
2022/10/06 11:57:26;;;;;;;5.30;1.70;;;19.20;98.40;;;;;;5021595;28;20464;-37
2022/10/06 12:00:00;;;;;;;6.60;1.73;;;19.30;96.80;;;;;;5028524;28;20416;-37
2022/10/06 12:02:29;;;;;;;3.80;1.47;;;19.30;96.40;;;;;;5029558;28;20599;-37
2022/10/06 12:05:22;;;;;;;5.43;1.70;;;19.40;96.80;;;;;;5029583;28;20429;-38
2022/10/06 12:07:56;;;;;;;5.10;1.77;;;19.40;96.80;;;;;;5028658;28;20428;-37
2022/10/06 12:10:28;;;;;;;3.47;1.10;;;19.50;96.60;;;;;;5029668;28;20425;-38
2022/10/06 12:13:24;;;;;;;4.00;1.47;;;19.50;96.20;;;;;;5032328;28;20444;-38
2022/10/06 12:15:56;;;;;;;4.40;1.17;;;19.60;96.40;;;;;;5029891;28;20764;-38
2022/10/06 12:18:31;;;;;;;2.20;1.30;;;19.60;95.80;;;;;;5029958;28;20464;-38
2022/10/06 12:21:35;;;;;;;7.53;1.20;;;19.60;95.30;;;;;;5035581;28;20413;-38
2022/10/06 12:24:25;;;;;;;3.97;1.47;;;19.60;94.70;;;;;;5029155;28;20500;-39
2022/10/06 12:26:57;;;;;;;4.60;1.73;;;19.50;94.50;;;;;;5028532;28;20429;-37
2022/10/06 12:29:23;;;;;;;5.33;1.77;;;19.50;94.40;;;;;;5029727;28;20425;-37
2022/10/06 12:32:10;;;;;;;4.27;1.40;;;19.50;94.30;;;;;;5029673;28;20512;-37
2022/10/06 12:35:11;;;;;;;4.17;1.03;;;19.40;94.10;;;;;;5029011;28;20510;-38
2022/10/06 12:37:42;;;;;;;6.50;1.47;;;19.40;92.10;;;;;;5012597;28;20516;-38
2022/10/06 12:40:45;;;;;;;4.80;1.00;;;19.20;93.60;;;;;;5028225;28;20422;-38
2022/10/06 12:43:11;;;;;;;2.57;1.10;;;19.30;94.20;;;;;;5028678;28;20412;-37
2022/10/06 12:45:41;;;;;;;6.70;1.30;;;19.40;94.20;;;;;;5028254;28;20447;-37
2022/10/06 12:48:17;;;;;;;3.87;1.50;;;19.40;93.20;;;;;;5029326;28;20206;-38
2022/10/06 12:50:44;;;;;;;3.60;1.20;;;19.30;93.70;;;;;;5036927;28;20417;-37
2022/10/06 12:53:33;;;;;;;3.43;1.20;;;19.40;94.60;;;;;;5033070;28;20789;-37
2022/10/06 12:56:10;;;;;;;2.30;1.20;;;19.40;94.40;;;;;;5035236;28;20991;-37
2022/10/06 12:58:36;;;;;;;2.67;1.10;;;19.40;93.10;;;;;;5028353;28;20451;-37
2022/10/06 13:01:05;;;;;;;3.20;1.13;;;19.30;92.30;;;;;;5030879;28;21903;-38
2022/10/06 13:03:31;;;;;;;4.30;1.10;;;19.40;92.70;;;;;;5047088;28;20178;-37
2022/10/06 13:06:00;;;;;;;5.90;1.77;;;19.30;93.10;;;;;;5028527;28;20441;-37
2022/10/06 13:08:31;;;;;;;4.47;1.50;;;19.20;93.30;;;;;;5027604;28;20503;-39
2022/10/06 13:11:22;;;;;;;6.10;1.27;;;19.30;94.60;;;;;;5029037;28;20785;-37
2022/10/06 13:13:57;;;;;;;4.00;1.13;;;19.40;93.50;;;;;;5046871;28;20428;-37
2022/10/06 13:16:31;;;;;;;4.80;1.53;;;19.30;92.80;;;;;;5045093;28;20460;-37
2022/10/06 13:18:59;;;;;;;3.53;0.90;;;19.30;93.50;;;;;;5025273;28;20416;-37
2022/10/06 13:21:28;;;;;;;3.97;1.17;;;19.30;92.90;;;;;;5037935;28;20979;-38